Clifford, Michigan
Current Conditions -  °F | °C
As of 8:35 AM on Monday 22 Dec 2014 (Local Time) from KCFS Reporting Station
Haze Haze  
Wind Chill: 27°   Ceiling: Unl
Heat Index: 27°   Visibility: 5mi
Dew Point: 23°   Wind: 3mph
Humidity: 86%   Direction: 110°ESE
Pressure: 30.1"   Gusts: NA
Location:  43.31°N, 83.18°W
Report Text: KCFS 221335Z AUTO 11003KT 5SM BR CLR M03/M05 A3010 RMK AO2 T10301050
Loading
Personal Weather Stations






























Interactive Weather Map New forecast layout! Learn more

10-Day Weather Forecast

Advertisements
Track Severe Weather on mobile